sensor_id;sensor_type;location;lat;lon;timestamp;pressure;altitude;pressure_sealevel;temperature;humidity
60055;BME280;45930;53.514;55.904;2023-03-18T00:00:43;49379.56;;;-149.77;53.02
60055;BME280;45930;53.514;55.904;2023-03-18T00:01:45;49381.56;;;-149.77;53.29
60055;BME280;45930;53.514;55.904;2023-03-18T00:02:46;49355.78;;;-149.77;53.20
60055;BME280;45930;53.514;55.904;2023-03-18T00:03:48;49415.22;;;-149.77;53.29
60055;BME280;45930;53.514;55.904;2023-03-18T00:04:48;49397.41;;;-149.77;53.01
60055;BME280;45930;53.514;55.904;2023-03-18T00:05:50;49393.44;;;-149.77;53.09
60055;BME280;45930;53.514;55.904;2023-03-18T00:06:52;49383.53;;;-149.77;53.04
60055;BME280;45930;53.514;55.904;2023-03-18T00:07:54;49397.41;;;-149.77;53.57
60055;BME280;45930;53.514;55.904;2023-03-18T00:08:55;49377.59;;;-149.77;53.19
60055;BME280;45930;53.514;55.904;2023-03-18T00:09:57;49375.59;;;-149.77;53.29
60055;BME280;45930;53.514;55.904;2023-03-18T00:10:58;49409.28;;;-149.77;53.41
60055;BME280;45930;53.514;55.904;2023-03-18T00:12:00;49397.41;;;-149.77;53.21
60055;BME280;45930;53.514;55.904;2023-03-18T00:13:02;49397.41;;;-149.77;53.13
60055;BME280;45930;53.514;55.904;2023-03-18T00:14:04;49381.56;;;-149.77;53.20
60055;BME280;45930;53.514;55.904;2023-03-18T00:15:06;49407.31;;;-149.77;53.42
60055;BME280;45930;53.514;55.904;2023-03-18T00:16:09;49397.41;;;-149.77;53.44
60055;BME280;45930;53.514;55.904;2023-03-18T00:17:11;49409.28;;;-149.77;53.54
60055;BME280;45930;53.514;55.904;2023-03-18T00:18:14;49403.34;;;-149.77;53.98
60055;BME280;45930;53.514;55.904;2023-03-18T00:19:15;49391.44;;;-149.77;53.68
60055;BME280;45930;53.514;55.904;2023-03-18T00:20:17;49387.50;;;-149.77;54.09
60055;BME280;45930;53.514;55.904;2023-03-18T00:21:28;49369.66;;;-149.77;54.22
60055;BME280;45930;53.514;55.904;2023-03-18T00:22:29;49389.47;;;-149.77;54.63
60055;BME280;45930;53.514;55.904;2023-03-18T00:23:31;49385.50;;;-149.77;54.59
60055;BME280;45930;53.514;55.904;2023-03-18T00:24:32;49365.69;;;-149.77;55.05
60055;BME280;45930;53.514;55.904;2023-03-18T00:25:34;49389.47;;;-149.77;55.06
60055;BME280;45930;53.514;55.904;2023-03-18T00:26:35;49397.41;;;-149.77;55.12
60055;BME280;45930;53.514;55.904;2023-03-18T00:27:37;49393.44;;;-149.77;55.33
60055;BME280;45930;53.514;55.904;2023-03-18T00:28:38;49444.94;;;-149.77;55.12
60055;BME280;45930;53.514;55.904;2023-03-18T00:29:38;49399.38;;;-149.77;55.55
60055;BME280;45930;53.514;55.904;2023-03-18T00:30:40;49389.47;;;-149.77;55.30
60055;BME280;45930;53.514;55.904;2023-03-18T00:31:42;49409.28;;;-149.77;55.52
60055;BME280;45930;53.514;55.904;2023-03-18T00:32:43;49369.66;;;-149.77;55.61
60055;BME280;45930;53.514;55.904;2023-03-18T00:33:44;49363.72;;;-149.77;55.91
60055;BME280;45930;53.514;55.904;2023-03-18T00:34:45;49391.44;;;-149.77;56.31
60055;BME280;45930;53.514;55.904;2023-03-18T00:35:46;49377.59;;;-149.77;55.98
60055;BME280;45930;53.514;55.904;2023-03-18T00:36:47;49365.69;;;-149.77;55.80
60055;BME280;45930;53.514;55.904;2023-03-18T00:37:50;49411.25;;;-149.77;56.06
60055;BME280;45930;53.514;55.904;2023-03-18T00:38:52;49393.44;;;-149.77;56.41
60055;BME280;45930;53.514;55.904;2023-03-18T00:40:07;49375.59;;;-149.77;56.47
60055;BME280;45930;53.514;55.904;2023-03-18T00:41:09;49397.41;;;-149.77;56.57
60055;BME280;45930;53.514;55.904;2023-03-18T00:42:12;49395.41;;;-149.77;56.87
60055;BME280;45930;53.514;55.904;2023-03-18T00:43:12;49413.25;;;-149.77;57.07
60055;BME280;45930;53.514;55.904;2023-03-18T00:44:13;49405.31;;;-149.77;57.04
60055;BME280;45930;53.514;55.904;2023-03-18T00:45:15;49387.50;;;-149.77;57.11
60055;BME280;45930;53.514;55.904;2023-03-18T00:46:28;49395.41;;;-149.77;57.24
60055;BME280;45930;53.514;55.904;2023-03-18T00:47:29;49383.53;;;-149.77;57.13
60055;BME280;45930;53.514;55.904;2023-03-18T00:48:30;49403.34;;;-149.77;57.21
60055;BME280;45930;53.514;55.904;2023-03-18T00:49:31;49401.34;;;-149.77;57.02
60055;BME280;45930;53.514;55.904;2023-03-18T00:50:34;49405.31;;;-149.77;57.38
60055;BME280;45930;53.514;55.904;2023-03-18T00:51:37;49385.50;;;-149.77;57.29
60055;BME280;45930;53.514;55.904;2023-03-18T00:52:39;49405.31;;;-149.77;57.46
60055;BME280;45930;53.514;55.904;2023-03-18T00:53:40;49385.50;;;-149.77;57.51
60055;BME280;45930;53.514;55.904;2023-03-18T00:54:41;49397.41;;;-149.77;57.35
60055;BME280;45930;53.514;55.904;2023-03-18T00:55:42;49385.50;;;-149.77;57.21
60055;BME280;45930;53.514;55.904;2023-03-18T00:56:43;49393.44;;;-149.77;57.41
60055;BME280;45930;53.514;55.904;2023-03-18T00:57:44;49403.34;;;-149.77;57.16
60055;BME280;45930;53.514;55.904;2023-03-18T00:58:46;49397.41;;;-149.77;56.93
60055;BME280;45930;53.514;55.904;2023-03-18T00:59:48;49389.47;;;-149.77;56.96
60055;BME280;45930;53.514;55.904;2023-03-18T01:00:48;49393.44;;;-149.77;56.77
60055;BME280;45930;53.514;55.904;2023-03-18T01:01:49;49381.56;;;-149.77;55.70
60055;BME280;45930;53.514;55.904;2023-03-18T01:02:50;49419.19;;;-149.77;55.66
60055;BME280;45930;53.514;55.904;2023-03-18T01:03:51;49399.38;;;-149.77;54.95
60055;BME280;45930;53.514;55.904;2023-03-18T01:04:52;49379.56;;;-149.77;54.96
60055;BME280;45930;53.514;55.904;2023-03-18T01:05:53;49401.34;;;-149.77;54.86
60055;BME280;45930;53.514;55.904;2023-03-18T01:06:54;49421.16;;;-149.77;55.52
60055;BME280;45930;53.514;55.904;2023-03-18T01:07:55;49395.41;;;-149.77;55.36
60055;BME280;45930;53.514;55.904;2023-03-18T01:08:57;49413.25;;;-149.77;55.60
60055;BME280;45930;53.514;55.904;2023-03-18T01:09:58;49393.44;;;-149.77;55.71
60055;BME280;45930;53.514;55.904;2023-03-18T01:10:59;49391.44;;;-149.77;55.85
60055;BME280;45930;53.514;55.904;2023-03-18T01:12:00;49399.38;;;-149.77;55.78
60055;BME280;45930;53.514;55.904;2023-03-18T01:13:00;49393.44;;;-149.77;56.22
60055;BME280;45930;53.514;55.904;2023-03-18T01:14:01;49409.28;;;-149.77;56.49
60055;BME280;45930;53.514;55.904;2023-03-18T01:15:03;49413.25;;;-149.77;56.36
60055;BME280;45930;53.514;55.904;2023-03-18T01:16:06;49369.66;;;-149.77;56.86
60055;BME280;45930;53.514;55.904;2023-03-18T01:17:08;49393.44;;;-149.77;56.83
60055;BME280;45930;53.514;55.904;2023-03-18T01:18:09;49395.41;;;-149.77;56.88
60055;BME280;45930;53.514;55.904;2023-03-18T01:19:13;49411.25;;;-149.77;57.17
60055;BME280;45930;53.514;55.904;2023-03-18T01:20:16;49403.34;;;-149.77;57.16
60055;BME280;45930;53.514;55.904;2023-03-18T01:21:17;49413.25;;;-149.77;57.87
60055;BME280;45930;53.514;55.904;2023-03-18T01:22:18;49395.41;;;-149.77;59.22
60055;BME280;45930;53.514;55.904;2023-03-18T01:23:19;49413.25;;;-149.77;59.59
60055;BME280;45930;53.514;55.904;2023-03-18T01:24:20;49381.56;;;-149.77;59.66
60055;BME280;45930;53.514;55.904;2023-03-18T01:25:21;49389.47;;;-149.77;59.66
60055;BME280;45930;53.514;55.904;2023-03-18T01:26:23;49437.00;;;-149.77;59.43
60055;BME280;45930;53.514;55.904;2023-03-18T01:27:25;49373.63;;;-149.77;59.88
60055;BME280;45930;53.514;55.904;2023-03-18T01:28:26;49413.25;;;-149.77;59.99
60055;BME280;45930;53.514;55.904;2023-03-18T01:29:28;49369.66;;;-149.77;59.80
60055;BME280;45930;53.514;55.904;2023-03-18T01:30:32;49391.44;;;-149.77;59.22
60055;BME280;45930;53.514;55.904;2023-03-18T01:31:35;49393.44;;;-149.77;59.10
60055;BME280;45930;53.514;55.904;2023-03-18T01:32:37;49365.69;;;-149.77;58.36
60055;BME280;45930;53.514;55.904;2023-03-18T01:33:38;49421.16;;;-149.77;57.90
60055;BME280;45930;53.514;55.904;2023-03-18T01:34:39;49373.63;;;-149.77;57.60
60055;BME280;45930;53.514;55.904;2023-03-18T01:35:41;49401.34;;;-149.77;57.37
60055;BME280;45930;53.514;55.904;2023-03-18T01:36:42;49405.31;;;-149.77;56.85
60055;BME280;45930;53.514;55.904;2023-03-18T01:37:42;49389.47;;;-149.77;56.67
60055;BME280;45930;53.514;55.904;2023-03-18T01:38:43;49385.50;;;-149.77;56.49
60055;BME280;45930;53.514;55.904;2023-03-18T01:39:44;49395.41;;;-149.77;56.05
60055;BME280;45930;53.514;55.904;2023-03-18T01:40:46;49407.31;;;-149.77;56.06
60055;BME280;45930;53.514;55.904;2023-03-18T01:41:47;49405.31;;;-149.77;55.88
60055;BME280;45930;53.514;55.904;2023-03-18T01:42:57;49377.59;;;-149.77;56.01
60055;BME280;45930;53.514;55.904;2023-03-18T01:43:58;49377.59;;;-149.77;55.71
60055;BME280;45930;53.514;55.904;2023-03-18T01:46:41;49401.34;;;-149.77;55.46
60055;BME280;45930;53.514;55.904;2023-03-18T01:47:43;49387.50;;;-149.77;55.53
60055;BME280;45930;53.514;55.904;2023-03-18T01:48:46;49367.69;;;-149.77;55.32
60055;BME280;45930;53.514;55.904;2023-03-18T01:49:49;49401.34;;;-149.77;55.48
60055;BME280;45930;53.514;55.904;2023-03-18T01:50:55;49387.50;;;-149.77;56.18
60055;BME280;45930;53.514;55.904;2023-03-18T01:52:16;49385.50;;;-149.77;55.95
60055;BME280;45930;53.514;55.904;2023-03-18T01:53:19;49401.34;;;-149.77;55.96
60055;BME280;45930;53.514;55.904;2023-03-18T01:54:22;49381.56;;;-149.77;56.23
60055;BME280;45930;53.514;55.904;2023-03-18T01:55:26;49387.50;;;-149.77;56.17
60055;BME280;45930;53.514;55.904;2023-03-18T01:56:28;49403.34;;;-149.77;56.29
60055;BME280;45930;53.514;55.904;2023-03-18T01:57:30;49417.19;;;-149.77;56.13
60055;BME280;45930;53.514;55.904;2023-03-18T01:58:36;49399.38;;;-149.77;56.37
60055;BME280;45930;53.514;55.904;2023-03-18T01:59:40;49405.31;;;-149.77;56.03
60055;BME280;45930;53.514;55.904;2023-03-18T02:00:47;49397.41;;;-149.77;56.24
60055;BME280;45930;53.514;55.904;2023-03-18T02:02:10;49365.69;;;-149.77;56.04
60055;BME280;45930;53.514;55.904;2023-03-18T02:03:11;49365.69;;;-149.77;55.76
60055;BME280;45930;53.514;55.904;2023-03-18T02:04:13;49411.25;;;-149.77;55.83
60055;BME280;45930;53.514;55.904;2023-03-18T02:05:17;49377.59;;;-149.77;55.40
60055;BME280;45930;53.514;55.904;2023-03-18T02:06:19;49381.56;;;-149.77;55.69
60055;BME280;45930;53.514;55.904;2023-03-18T02:07:26;49373.63;;;-149.77;55.28
60055;BME280;45930;53.514;55.904;2023-03-18T02:08:27;49391.44;;;-149.77;55.16
60055;BME280;45930;53.514;55.904;2023-03-18T02:09:28;49385.50;;;-149.77;54.98
60055;BME280;45930;53.514;55.904;2023-03-18T02:10:30;49397.41;;;-149.77;54.76
60055;BME280;45930;53.514;55.904;2023-03-18T02:11:34;49375.59;;;-149.77;54.86
60055;BME280;45930;53.514;55.904;2023-03-18T02:12:38;49393.44;;;-149.77;54.56
60055;BME280;45930;53.514;55.904;2023-03-18T02:13:43;49387.50;;;-149.77;54.13
60055;BME280;45930;53.514;55.904;2023-03-18T02:14:45;49385.50;;;-149.77;53.20
60055;BME280;45930;53.514;55.904;2023-03-18T02:16:12;49365.69;;;-149.77;53.18
60055;BME280;45930;53.514;55.904;2023-03-18T02:17:18;49385.50;;;-149.77;53.30
60055;BME280;45930;53.514;55.904;2023-03-18T02:18:23;49409.28;;;-149.77;53.01
60055;BME280;45930;53.514;55.904;2023-03-18T02:22:31;49397.41;;;-149.77;53.37
60055;BME280;45930;53.514;55.904;2023-03-18T02:26:38;49395.41;;;-149.77;54.52
60055;BME280;45930;53.514;55.904;2023-03-18T02:27:44;49413.25;;;-149.77;54.68
60055;BME280;45930;53.514;55.904;2023-03-18T02:28:46;49433.06;;;-149.77;54.89
60055;BME280;45930;53.514;55.904;2023-03-18T02:29:52;49399.38;;;-149.77;55.53
60055;BME280;45930;53.514;55.904;2023-03-18T02:30:57;49442.97;;;-149.77;55.89
60055;BME280;45930;53.514;55.904;2023-03-18T02:32:00;49405.31;;;-149.77;56.50
60055;BME280;45930;53.514;55.904;2023-03-18T02:33:04;49405.31;;;-149.77;56.44
60055;BME280;45930;53.514;55.904;2023-03-18T02:34:06;49429.09;;;-149.77;56.34
60055;BME280;45930;53.514;55.904;2023-03-18T02:35:10;49407.31;;;-149.77;56.22
60055;BME280;45930;53.514;55.904;2023-03-18T02:36:20;49423.16;;;-149.77;56.47
60055;BME280;45930;53.514;55.904;2023-03-18T02:37:22;49435.03;;;-149.77;56.88
60055;BME280;45930;53.514;55.904;2023-03-18T02:38:23;49411.25;;;-149.77;57.25
60055;BME280;45930;53.514;55.904;2023-03-18T02:39:24;49411.25;;;-149.77;57.66
60055;BME280;45930;53.514;55.904;2023-03-18T02:40:34;49421.16;;;-149.77;58.40
60055;BME280;45930;53.514;55.904;2023-03-18T02:41:35;49440.97;;;-149.77;58.67
60055;BME280;45930;53.514;55.904;2023-03-18T02:42:37;49411.25;;;-149.77;58.73
60055;BME280;45930;53.514;55.904;2023-03-18T02:43:37;49413.25;;;-149.77;58.73
60055;BME280;45930;53.514;55.904;2023-03-18T02:44:41;49413.25;;;-149.77;59.31
60055;BME280;45930;53.514;55.904;2023-03-18T02:47:20;49401.34;;;-149.77;59.68
60055;BME280;45930;53.514;55.904;2023-03-18T02:48:26;49407.31;;;-149.77;59.48
60055;BME280;45930;53.514;55.904;2023-03-18T02:49:28;49389.47;;;-149.77;59.44
60055;BME280;45930;53.514;55.904;2023-03-18T02:50:30;49403.34;;;-149.77;60.55
60055;BME280;45930;53.514;55.904;2023-03-18T02:51:31;49387.50;;;-149.77;60.72
60055;BME280;45930;53.514;55.904;2023-03-18T02:52:32;49411.25;;;-149.77;61.04
60055;BME280;45930;53.514;55.904;2023-03-18T02:53:33;49397.41;;;-149.77;61.23
60055;BME280;45930;53.514;55.904;2023-03-18T02:54:34;49411.25;;;-149.77;61.42
60055;BME280;45930;53.514;55.904;2023-03-18T02:55:35;49401.34;;;-149.77;61.69
60055;BME280;45930;53.514;55.904;2023-03-18T02:56:40;49409.28;;;-149.77;62.32
60055;BME280;45930;53.514;55.904;2023-03-18T02:57:41;49389.47;;;-149.77;61.64
60055;BME280;45930;53.514;55.904;2023-03-18T02:58:43;49401.34;;;-149.77;58.90
60055;BME280;45930;53.514;55.904;2023-03-18T02:59:44;49421.16;;;-149.77;58.52
60055;BME280;45930;53.514;55.904;2023-03-18T03:00:45;49433.06;;;-149.77;58.76
60055;BME280;45930;53.514;55.904;2023-03-18T03:01:47;49397.41;;;-149.77;59.51
60055;BME280;45930;53.514;55.904;2023-03-18T03:02:48;49387.50;;;-149.77;59.74
60055;BME280;45930;53.514;55.904;2023-03-18T03:03:49;49401.34;;;-149.77;59.56
60055;BME280;45930;53.514;55.904;2023-03-18T03:04:50;49397.41;;;-149.77;59.19
60055;BME280;45930;53.514;55.904;2023-03-18T03:05:51;49395.41;;;-149.77;59.42
60055;BME280;45930;53.514;55.904;2023-03-18T03:06:56;49417.19;;;-149.77;59.44
60055;BME280;45930;53.514;55.904;2023-03-18T03:07:57;49385.50;;;-149.77;59.59
60055;BME280;45930;53.514;55.904;2023-03-18T03:08:58;49381.56;;;-149.77;59.38
60055;BME280;45930;53.514;55.904;2023-03-18T03:10:00;49419.19;;;-149.77;58.93
60055;BME280;45930;53.514;55.904;2023-03-18T03:11:01;49399.38;;;-149.77;59.22
60055;BME280;45930;53.514;55.904;2023-03-18T03:12:02;49401.34;;;-149.77;58.33
60055;BME280;45930;53.514;55.904;2023-03-18T03:13:03;49421.16;;;-149.77;59.03
60055;BME280;45930;53.514;55.904;2023-03-18T03:14:04;49401.34;;;-149.77;59.67
60055;BME280;45930;53.514;55.904;2023-03-18T03:15:08;49334.00;;;-149.77;60.00
60055;BME280;45930;53.514;55.904;2023-03-18T03:16:10;49381.56;;;-149.77;60.33
60055;BME280;45930;53.514;55.904;2023-03-18T03:17:11;49383.53;;;-149.77;60.35
60055;BME280;45930;53.514;55.904;2023-03-18T03:18:12;49373.63;;;-149.77;60.80
60055;BME280;45930;53.514;55.904;2023-03-18T03:19:13;49373.63;;;-149.77;60.38
60055;BME280;45930;53.514;55.904;2023-03-18T03:20:15;49383.53;;;-149.77;60.56
60055;BME280;45930;53.514;55.904;2023-03-18T03:21:17;49361.75;;;-149.77;60.09
60055;BME280;45930;53.514;55.904;2023-03-18T03:22:18;49369.66;;;-149.77;60.21
60055;BME280;45930;53.514;55.904;2023-03-18T03:23:19;49369.66;;;-149.77;60.33
60055;BME280;45930;53.514;55.904;2023-03-18T03:24:20;49385.50;;;-149.77;59.83
60055;BME280;45930;53.514;55.904;2023-03-18T03:25:21;49375.59;;;-149.77;59.33
60055;BME280;45930;53.514;55.904;2023-03-18T03:26:22;49369.66;;;-149.77;59.74
60055;BME280;45930;53.514;55.904;2023-03-18T03:27:23;49383.53;;;-149.77;59.81
60055;BME280;45930;53.514;55.904;2023-03-18T03:28:24;49373.63;;;-149.77;59.71
60055;BME280;45930;53.514;55.904;2023-03-18T03:29:25;49381.56;;;-149.77;59.70
60055;BME280;45930;53.514;55.904;2023-03-18T03:30:25;49341.94;;;-149.77;59.61
60055;BME280;45930;53.514;55.904;2023-03-18T03:31:27;49359.75;;;-149.77;58.93
60055;BME280;45930;53.514;55.904;2023-03-18T03:32:27;49345.91;;;-149.77;59.19
60055;BME280;45930;53.514;55.904;2023-03-18T03:33:28;49345.91;;;-149.77;59.01
60055;BME280;45930;53.514;55.904;2023-03-18T03:34:29;49349.84;;;-149.77;58.98
60055;BME280;45930;53.514;55.904;2023-03-18T03:35:31;49353.81;;;-149.77;58.75
60055;BME280;45930;53.514;55.904;2023-03-18T03:36:32;49355.78;;;-149.77;58.91
60055;BME280;45930;53.514;55.904;2023-03-18T03:37:33;49365.69;;;-149.77;58.71
60055;BME280;45930;53.514;55.904;2023-03-18T03:38:34;49355.78;;;-149.77;58.58
60055;BME280;45930;53.514;55.904;2023-03-18T03:39:35;49355.78;;;-149.77;58.24
60055;BME280;45930;53.514;55.904;2023-03-18T03:40:36;49351.84;;;-149.77;57.86
60055;BME280;45930;53.514;55.904;2023-03-18T03:41:36;49357.78;;;-149.77;57.66
60055;BME280;45930;53.514;55.904;2023-03-18T03:42:37;49349.84;;;-149.77;57.32
60055;BME280;45930;53.514;55.904;2023-03-18T03:43:39;49359.75;;;-149.77;57.16
60055;BME280;45930;53.514;55.904;2023-03-18T03:44:40;49316.19;;;-149.77;57.04
60055;BME280;45930;53.514;55.904;2023-03-18T03:45:42;49353.81;;;-149.77;57.18
60055;BME280;45930;53.514;55.904;2023-03-18T03:46:46;49347.88;;;-149.77;56.89
60055;BME280;45930;53.514;55.904;2023-03-18T03:47:48;49355.78;;;-149.77;57.07
60055;BME280;45930;53.514;55.904;2023-03-18T03:48:48;49361.75;;;-149.77;56.99
60055;BME280;45930;53.514;55.904;2023-03-18T03:49:49;49359.75;;;-149.77;57.00
60055;BME280;45930;53.514;55.904;2023-03-18T03:50:51;49334.00;;;-149.77;56.67
60055;BME280;45930;53.514;55.904;2023-03-18T03:51:52;49339.94;;;-149.77;56.52
60055;BME280;45930;53.514;55.904;2023-03-18T03:52:53;49322.13;;;-149.77;56.37
60055;BME280;45930;53.514;55.904;2023-03-18T03:53:54;49337.97;;;-149.77;55.80
60055;BME280;45930;53.514;55.904;2023-03-18T03:54:54;49324.09;;;-149.77;56.16
60055;BME280;45930;53.514;55.904;2023-03-18T03:55:55;49306.28;;;-149.77;55.99
60055;BME280;45930;53.514;55.904;2023-03-18T03:56:56;49332.03;;;-149.77;55.41
60055;BME280;45930;53.514;55.904;2023-03-18T03:57:57;49330.03;;;-149.77;55.11
60055;BME280;45930;53.514;55.904;2023-03-18T03:58:58;49316.19;;;-149.77;54.81
60055;BME280;45930;53.514;55.904;2023-03-18T04:00:00;49326.09;;;-149.77;54.30
60055;BME280;45930;53.514;55.904;2023-03-18T04:01:01;49324.09;;;-149.77;54.13
60055;BME280;45930;53.514;55.904;2023-03-18T04:02:02;49334.00;;;-149.77;53.71
60055;BME280;45930;53.514;55.904;2023-03-18T04:03:03;49318.16;;;-149.77;53.58
60055;BME280;45930;53.514;55.904;2023-03-18T04:04:04;49328.06;;;-149.77;53.69
60055;BME280;45930;53.514;55.904;2023-03-18T04:05:06;49312.22;;;-149.77;53.52
60055;BME280;45930;53.514;55.904;2023-03-18T04:06:07;49300.34;;;-149.77;53.49
60055;BME280;45930;53.514;55.904;2023-03-18T04:07:08;49294.41;;;-149.77;52.52
60055;BME280;45930;53.514;55.904;2023-03-18T04:08:09;49306.28;;;-149.77;52.84
60055;BME280;45930;53.514;55.904;2023-03-18T04:09:10;49324.09;;;-149.77;52.89
60055;BME280;45930;53.514;55.904;2023-03-18T04:10:14;49300.34;;;-149.77;52.43
60055;BME280;45930;53.514;55.904;2023-03-18T04:11:15;49310.25;;;-149.77;52.61
60055;BME280;45930;53.514;55.904;2023-03-18T04:12:16;49300.34;;;-149.77;52.52
60055;BME280;45930;53.514;55.904;2023-03-18T04:13:19;49266.66;;;-149.77;52.12
60055;BME280;45930;53.514;55.904;2023-03-18T04:14:19;49290.44;;;-149.77;51.73
60055;BME280;45930;53.514;55.904;2023-03-18T04:15:21;49286.47;;;-149.77;51.74
60055;BME280;45930;53.514;55.904;2023-03-18T04:16:22;49278.53;;;-149.77;51.95
60055;BME280;45930;53.514;55.904;2023-03-18T04:17:22;49320.16;;;-149.77;51.67
60055;BME280;45930;53.514;55.904;2023-03-18T04:18:24;49278.53;;;-149.77;51.27
60055;BME280;45930;53.514;55.904;2023-03-18T04:19:26;49284.50;;;-149.77;50.83
60055;BME280;45930;53.514;55.904;2023-03-18T04:20:26;49290.44;;;-149.77;50.98
60055;BME280;45930;53.514;55.904;2023-03-18T04:21:27;49268.63;;;-149.77;50.78
60055;BME280;45930;53.514;55.904;2023-03-18T04:22:28;49290.44;;;-149.77;50.98
60055;BME280;45930;53.514;55.904;2023-03-18T04:23:30;49296.38;;;-149.77;50.77
60055;BME280;45930;53.514;55.904;2023-03-18T04:24:32;49280.53;;;-149.77;51.21
60055;BME280;45930;53.514;55.904;2023-03-18T04:25:33;49250.81;;;-149.77;50.87
60055;BME280;45930;53.514;55.904;2023-03-18T04:26:34;49294.41;;;-149.77;50.89
60055;BME280;45930;53.514;55.904;2023-03-18T04:27:35;49282.50;;;-149.77;50.98
60055;BME280;45930;53.514;55.904;2023-03-18T04:28:37;49300.34;;;-149.77;50.71
60055;BME280;45930;53.514;55.904;2023-03-18T04:29:37;49268.63;;;-149.77;50.38
60055;BME280;45930;53.514;55.904;2023-03-18T04:30:39;49286.47;;;-149.77;50.10
60055;BME280;45930;53.514;55.904;2023-03-18T04:31:40;49272.59;;;-149.77;49.93
60055;BME280;45930;53.514;55.904;2023-03-18T04:32:41;49268.63;;;-149.77;49.99
60055;BME280;45930;53.514;55.904;2023-03-18T04:33:42;49238.94;;;-149.77;49.43
60055;BME280;45930;53.514;55.904;2023-03-18T04:34:44;49262.69;;;-149.77;49.41
60055;BME280;45930;53.514;55.904;2023-03-18T04:35:46;49258.75;;;-149.77;48.92
60055;BME280;45930;53.514;55.904;2023-03-18T04:36:48;49258.75;;;-149.77;49.08
60055;BME280;45930;53.514;55.904;2023-03-18T04:37:49;49262.69;;;-149.77;48.48
60055;BME280;45930;53.514;55.904;2023-03-18T04:38:50;49254.78;;;-149.77;48.33
60055;BME280;45930;53.514;55.904;2023-03-18T04:39:51;49250.81;;;-149.77;48.59
60055;BME280;45930;53.514;55.904;2023-03-18T04:40:51;49258.75;;;-149.77;48.17
60055;BME280;45930;53.514;55.904;2023-03-18T04:41:52;49219.13;;;-149.77;48.00
60055;BME280;45930;53.514;55.904;2023-03-18T04:42:54;49240.91;;;-149.77;48.11
60055;BME280;45930;53.514;55.904;2023-03-18T04:43:55;49234.97;;;-149.77;48.07
60055;BME280;45930;53.514;55.904;2023-03-18T04:44:57;49266.66;;;-149.77;47.76
60055;BME280;45930;53.514;55.904;2023-03-18T04:45:58;49223.09;;;-149.77;47.65
60055;BME280;45930;53.514;55.904;2023-03-18T04:46:59;49242.91;;;-149.77;47.19
60055;BME280;45930;53.514;55.904;2023-03-18T04:48:00;49236.94;;;-149.77;47.94
60055;BME280;45930;53.514;55.904;2023-03-18T04:49:01;49227.03;;;-149.77;47.54
60055;BME280;45930;53.514;55.904;2023-03-18T04:50:02;49238.94;;;-149.77;47.66
60055;BME280;45930;53.514;55.904;2023-03-18T04:51:04;49252.78;;;-149.77;47.48
60055;BME280;45930;53.514;55.904;2023-03-18T04:52:07;49234.97;;;-149.77;47.44
60055;BME280;45930;53.514;55.904;2023-03-18T04:53:08;49236.94;;;-149.77;47.69
60055;BME280;45930;53.514;55.904;2023-03-18T04:54:09;49227.03;;;-149.77;47.66
60055;BME280;45930;53.514;55.904;2023-03-18T04:55:12;49219.13;;;-149.77;47.25
60055;BME280;45930;53.514;55.904;2023-03-18T04:56:16;49240.91;;;-149.77;47.05
60055;BME280;45930;53.514;55.904;2023-03-18T04:57:17;49219.13;;;-149.77;47.26
60055;BME280;45930;53.514;55.904;2023-03-18T04:58:19;49234.97;;;-149.77;47.21
60055;BME280;45930;53.514;55.904;2023-03-18T04:59:19;49223.09;;;-149.77;47.36
60055;BME280;45930;53.514;55.904;2023-03-18T05:00:21;49209.22;;;-149.77;47.46
60055;BME280;45930;53.514;55.904;2023-03-18T05:01:22;49217.13;;;-149.77;47.27
60055;BME280;45930;53.514;55.904;2023-03-18T05:02:23;49238.94;;;-149.77;47.64
60055;BME280;45930;53.514;55.904;2023-03-18T05:03:24;49207.25;;;-149.77;47.59
60055;BME280;45930;53.514;55.904;2023-03-18T05:04:25;49215.16;;;-149.77;47.71
60055;BME280;45930;53.514;55.904;2023-03-18T05:05:26;49207.25;;;-149.77;47.51
60055;BME280;45930;53.514;55.904;2023-03-18T05:06:29;49213.19;;;-149.77;47.59
60055;BME280;45930;53.514;55.904;2023-03-18T05:07:31;49219.13;;;-149.77;47.51
60055;BME280;45930;53.514;55.904;2023-03-18T05:08:32;49211.19;;;-149.77;47.52
60055;BME280;45930;53.514;55.904;2023-03-18T05:09:34;49217.13;;;-149.77;47.58
60055;BME280;45930;53.514;55.904;2023-03-18T05:10:35;49187.44;;;-149.77;47.46
60055;BME280;45930;53.514;55.904;2023-03-18T05:11:35;49205.25;;;-149.77;47.36
60055;BME280;45930;53.514;55.904;2023-03-18T05:12:36;49207.25;;;-149.77;47.62
60055;BME280;45930;53.514;55.904;2023-03-18T05:13:37;49203.28;;;-149.77;47.38
60055;BME280;45930;53.514;55.904;2023-03-18T05:14:41;49187.44;;;-149.77;47.84
60055;BME280;45930;53.514;55.904;2023-03-18T05:15:42;49213.19;;;-149.77;47.95
60055;BME280;45930;53.514;55.904;2023-03-18T05:16:43;49223.09;;;-149.77;48.08
60055;BME280;45930;53.514;55.904;2023-03-18T05:17:44;49205.25;;;-149.77;48.00
60055;BME280;45930;53.514;55.904;2023-03-18T05:18:45;49181.50;;;-149.77;47.39
60055;BME280;45930;53.514;55.904;2023-03-18T05:19:47;49179.50;;;-149.77;47.70
60055;BME280;45930;53.514;55.904;2023-03-18T05:20:48;49213.19;;;-149.77;47.55
60055;BME280;45930;53.514;55.904;2023-03-18T05:21:48;49203.28;;;-149.77;47.78
60055;BME280;45930;53.514;55.904;2023-03-18T05:22:49;49197.34;;;-149.77;47.64
60055;BME280;45930;53.514;55.904;2023-03-18T05:23:53;49203.28;;;-149.77;47.51
60055;BME280;45930;53.514;55.904;2023-03-18T05:24:54;49167.63;;;-149.77;47.60
60055;BME280;45930;53.514;55.904;2023-03-18T05:25:55;49169.59;;;-149.77;47.50